sensor_id;sensor_type;location;lat;lon;timestamp;pressure;altitude;pressure_sealevel;temperature
22269;BMP280;11303;50.772;19.670;2023-09-30T00:00:10;99233.31;;;11.51
22269;BMP280;11303;50.772;19.670;2023-09-30T00:02:13;99230.38;;;11.52
22269;BMP280;11303;50.772;19.670;2023-09-30T00:04:14;99234.47;;;11.53
22269;BMP280;11303;50.772;19.670;2023-09-30T00:06:16;99233.06;;;11.56
22269;BMP280;11303;50.772;19.670;2023-09-30T00:08:17;99226.75;;;11.57
22269;BMP280;11303;50.772;19.670;2023-09-30T00:10:19;99229.47;;;11.60
22269;BMP280;11303;50.772;19.670;2023-09-30T00:12:21;99225.75;;;11.61
22269;BMP280;11303;50.772;19.670;2023-09-30T00:14:23;99224.34;;;11.64
22269;BMP280;11303;50.772;19.670;2023-09-30T00:16:24;99224.34;;;11.64
22269;BMP280;11303;50.772;19.670;2023-09-30T00:18:26;99227.38;;;11.66
22269;BMP280;11303;50.772;19.670;2023-09-30T00:20:29;99217.03;;;11.70
22269;BMP280;11303;50.772;19.670;2023-09-30T00:22:30;99213.78;;;11.73
22269;BMP280;11303;50.772;19.670;2023-09-30T00:24:32;99211.94;;;11.73
22269;BMP280;11303;50.772;19.670;2023-09-30T00:26:35;99221.75;;;11.80
22269;BMP280;11303;50.772;19.670;2023-09-30T00:28:37;99219.59;;;11.82
22269;BMP280;11303;50.772;19.670;2023-09-30T00:30:38;99215.22;;;11.86
22269;BMP280;11303;50.772;19.670;2023-09-30T00:32:40;99215.72;;;11.92
22269;BMP280;11303;50.772;19.670;2023-09-30T00:34:42;99215.06;;;11.95
22269;BMP280;11303;50.772;19.670;2023-09-30T00:36:44;99213.63;;;11.97
22269;BMP280;11303;50.772;19.670;2023-09-30T00:38:46;99201.78;;;12.00
22269;BMP280;11303;50.772;19.670;2023-09-30T00:40:48;99208.19;;;12.02
22269;BMP280;11303;50.772;19.670;2023-09-30T00:42:50;99201.84;;;12.03
22269;BMP280;11303;50.772;19.670;2023-09-30T00:44:52;99201.16;;;12.06
22269;BMP280;11303;50.772;19.670;2023-09-30T00:46:54;99207.16;;;12.07
22269;BMP280;11303;50.772;19.670;2023-09-30T00:49:00;99203.44;;;12.08
22269;BMP280;11303;50.772;19.670;2023-09-30T00:51:02;99209.09;;;12.10
22269;BMP280;11303;50.772;19.670;2023-09-30T00:53:04;99207.25;;;12.11
22269;BMP280;11303;50.772;19.670;2023-09-30T00:55:06;99206.16;;;12.12
22269;BMP280;11303;50.772;19.670;2023-09-30T00:57:08;99208.84;;;12.15
22269;BMP280;11303;50.772;19.670;2023-09-30T00:59:10;99205.47;;;12.15
22269;BMP280;11303;50.772;19.670;2023-09-30T01:01:12;99205.47;;;12.15
22269;BMP280;11303;50.772;19.670;2023-09-30T01:03:14;99206.97;;;12.16
22269;BMP280;11303;50.772;19.670;2023-09-30T01:05:16;99207.81;;;12.20
22269;BMP280;11303;50.772;19.670;2023-09-30T01:07:18;99201.94;;;12.23
22269;BMP280;11303;50.772;19.670;2023-09-30T01:09:23;99206.81;;;12.24
22269;BMP280;11303;50.772;19.670;2023-09-30T01:11:25;99197.91;;;12.25
22269;BMP280;11303;50.772;19.670;2023-09-30T01:13:34;99201.78;;;12.32
22269;BMP280;11303;50.772;19.670;2023-09-30T01:15:36;99199.22;;;12.35
22269;BMP280;11303;50.772;19.670;2023-09-30T01:17:38;99197.81;;;12.38
22269;BMP280;11303;50.772;19.670;2023-09-30T01:19:40;99198.63;;;12.42
22269;BMP280;11303;50.772;19.670;2023-09-30T01:21:43;99205.78;;;12.45
22269;BMP280;11303;50.772;19.670;2023-09-30T01:23:49;99196.88;;;12.46
22269;BMP280;11303;50.772;19.670;2023-09-30T01:25:51;99199.53;;;12.50
22269;BMP280;11303;50.772;19.670;2023-09-30T01:27:53;99195.50;;;12.52
22269;BMP280;11303;50.772;19.670;2023-09-30T01:29:55;99207.13;;;12.55
22269;BMP280;11303;50.772;19.670;2023-09-30T01:31:57;99203.03;;;12.57
22269;BMP280;11303;50.772;19.670;2023-09-30T01:33:58;99207.25;;;12.62
22269;BMP280;11303;50.772;19.670;2023-09-30T01:36:00;99212.56;;;12.65
22269;BMP280;11303;50.772;19.670;2023-09-30T01:38:02;99201.09;;;12.70
22269;BMP280;11303;50.772;19.670;2023-09-30T01:40:04;99208.66;;;12.75
22269;BMP280;11303;50.772;19.670;2023-09-30T01:42:09;99199.38;;;12.78
22269;BMP280;11303;50.772;19.670;2023-09-30T01:44:11;99203.59;;;12.82
22269;BMP280;11303;50.772;19.670;2023-09-30T01:46:13;99209.56;;;12.83
22269;BMP280;11303;50.772;19.670;2023-09-30T01:48:15;99204.41;;;12.86
22269;BMP280;11303;50.772;19.670;2023-09-30T01:50:17;99194.41;;;12.89
22269;BMP280;11303;50.772;19.670;2023-09-30T01:52:18;99201.19;;;12.93
22269;BMP280;11303;50.772;19.670;2023-09-30T01:54:20;99205.75;;;12.96
22269;BMP280;11303;50.772;19.670;2023-09-30T01:56:22;99197.94;;;13.00
22269;BMP280;11303;50.772;19.670;2023-09-30T01:58:23;99205.50;;;13.05
22269;BMP280;11303;50.772;19.670;2023-09-30T02:00:26;99197.81;;;13.12
22269;BMP280;11303;50.772;19.670;2023-09-30T02:02:30;99202.75;;;13.17
22269;BMP280;11303;50.772;19.670;2023-09-30T02:04:31;99199.84;;;13.22
22269;BMP280;11303;50.772;19.670;2023-09-30T02:06:33;99196.63;;;13.29
22269;BMP280;11303;50.772;19.670;2023-09-30T02:08:36;99184.38;;;13.33
22269;BMP280;11303;50.772;19.670;2023-09-30T02:10:37;99188.91;;;13.36
22269;BMP280;11303;50.772;19.670;2023-09-30T02:12:39;99192.81;;;13.46
22269;BMP280;11303;50.772;19.670;2023-09-30T02:14:42;99190.28;;;13.50
22269;BMP280;11303;50.772;19.670;2023-09-30T02:16:43;99179.19;;;13.56
22269;BMP280;11303;50.772;19.670;2023-09-30T02:18:45;99191.97;;;13.61
22269;BMP280;11303;50.772;19.670;2023-09-30T02:20:47;99189.06;;;13.66
22269;BMP280;11303;50.772;19.670;2023-09-30T02:22:48;99190.97;;;13.70
22269;BMP280;11303;50.772;19.670;2023-09-30T02:24:50;99192.13;;;13.72
22269;BMP280;11303;50.772;19.670;2023-09-30T02:26:52;99180.56;;;13.73
22269;BMP280;11303;50.772;19.670;2023-09-30T02:28:53;99182.91;;;13.78
22269;BMP280;11303;50.772;19.670;2023-09-30T02:30:55;99183.72;;;13.82
22269;BMP280;11303;50.772;19.670;2023-09-30T02:32:57;99181.50;;;13.84
22269;BMP280;11303;50.772;19.670;2023-09-30T02:34:59;99187.81;;;13.83
22269;BMP280;11303;50.772;19.670;2023-09-30T02:37:00;99179.63;;;13.85
22269;BMP280;11303;50.772;19.670;2023-09-30T02:39:02;99184.88;;;13.85
22269;BMP280;11303;50.772;19.670;2023-09-30T02:41:04;99183.34;;;13.84
22269;BMP280;11303;50.772;19.670;2023-09-30T02:43:06;99178.13;;;13.84
22269;BMP280;11303;50.772;19.670;2023-09-30T02:45:10;99183.00;;;13.85
22269;BMP280;11303;50.772;19.670;2023-09-30T02:47:12;99184.53;;;13.86
22269;BMP280;11303;50.772;19.670;2023-09-30T02:49:14;99178.22;;;13.91
22269;BMP280;11303;50.772;19.670;2023-09-30T02:51:16;99189.53;;;13.95
22269;BMP280;11303;50.772;19.670;2023-09-30T02:53:17;99182.06;;;13.97
22269;BMP280;11303;50.772;19.670;2023-09-30T02:55:19;99174.63;;;13.99
22269;BMP280;11303;50.772;19.670;2023-09-30T02:57:20;99181.00;;;14.02
22269;BMP280;11303;50.772;19.670;2023-09-30T02:59:22;99178.78;;;14.04
22269;BMP280;11303;50.772;19.670;2023-09-30T03:01:24;99176.94;;;14.04
22269;BMP280;11303;50.772;19.670;2023-09-30T03:03:26;99174.38;;;14.08
22269;BMP280;11303;50.772;19.670;2023-09-30T03:05:28;99173.66;;;14.07
22269;BMP280;11303;50.772;19.670;2023-09-30T03:07:33;99173.28;;;14.09
22269;BMP280;11303;50.772;19.670;2023-09-30T03:09:35;99177.38;;;14.10
22269;BMP280;11303;50.772;19.670;2023-09-30T03:11:37;99175.19;;;14.12
22269;BMP280;11303;50.772;19.670;2023-09-30T03:13:39;99180.44;;;14.12
22269;BMP280;11303;50.772;19.670;2023-09-30T03:15:44;99186.00;;;14.11
22269;BMP280;11303;50.772;19.670;2023-09-30T03:17:46;99189.34;;;14.11
22269;BMP280;11303;50.772;19.670;2023-09-30T03:19:49;99191.97;;;14.11
22269;BMP280;11303;50.772;19.670;2023-09-30T03:21:51;99183.72;;;14.09
22269;BMP280;11303;50.772;19.670;2023-09-30T03:23:53;99181.13;;;14.09
22269;BMP280;11303;50.772;19.670;2023-09-30T03:25:56;99186.72;;;14.07
22269;BMP280;11303;50.772;19.670;2023-09-30T03:27:58;99184.44;;;14.06
22269;BMP280;11303;50.772;19.670;2023-09-30T03:30:00;99180.72;;;14.07
22269;BMP280;11303;50.772;19.670;2023-09-30T03:32:02;99175.81;;;14.05
22269;BMP280;11303;50.772;19.670;2023-09-30T03:34:05;99179.22;;;14.06
22269;BMP280;11303;50.772;19.670;2023-09-30T03:36:08;99187.50;;;14.12
22269;BMP280;11303;50.772;19.670;2023-09-30T03:38:11;99181.16;;;14.13
22269;BMP280;11303;50.772;19.670;2023-09-30T03:40:14;99177.09;;;14.15
22269;BMP280;11303;50.772;19.670;2023-09-30T03:42:21;99179.75;;;14.19
22269;BMP280;11303;50.772;19.670;2023-09-30T03:44:23;99179.44;;;14.24
22269;BMP280;11303;50.772;19.670;2023-09-30T03:46:24;99178.34;;;14.25
22269;BMP280;11303;50.772;19.670;2023-09-30T03:48:27;99181.72;;;14.25
22269;BMP280;11303;50.772;19.670;2023-09-30T03:50:29;99189.97;;;14.27
22269;BMP280;11303;50.772;19.670;2023-09-30T03:52:33;99186.22;;;14.28
22269;BMP280;11303;50.772;19.670;2023-09-30T03:54:35;99184.78;;;14.31
22269;BMP280;11303;50.772;19.670;2023-09-30T03:56:37;99189.63;;;14.29
22269;BMP280;11303;50.772;19.670;2023-09-30T03:58:43;99188.84;;;14.28
22269;BMP280;11303;50.772;19.670;2023-09-30T04:00:46;99193.69;;;14.26
22269;BMP280;11303;50.772;19.670;2023-09-30T04:02:48;99189.19;;;14.27
22269;BMP280;11303;50.772;19.670;2023-09-30T04:04:52;99194.78;;;14.25
22269;BMP280;11303;50.772;19.670;2023-09-30T04:06:57;99196.66;;;14.25
22269;BMP280;11303;50.772;19.670;2023-09-30T04:08:58;99198.09;;;14.22
22269;BMP280;11303;50.772;19.670;2023-09-30T04:11:00;99194.34;;;14.20
22269;BMP280;11303;50.772;19.670;2023-09-30T04:13:02;99193.19;;;14.17
22269;BMP280;11303;50.772;19.670;2023-09-30T04:15:04;99184.94;;;14.15
22269;BMP280;11303;50.772;19.670;2023-09-30T04:17:06;99203.63;;;14.14
22269;BMP280;11303;50.772;19.670;2023-09-30T04:19:08;99194.91;;;14.06
22269;BMP280;11303;50.772;19.670;2023-09-30T04:21:12;99198.91;;;14.00
22269;BMP280;11303;50.772;19.670;2023-09-30T04:23:13;99200.31;;;13.94
22269;BMP280;11303;50.772;19.670;2023-09-30T04:25:15;99206.97;;;13.91
22269;BMP280;11303;50.772;19.670;2023-09-30T04:27:20;99204.34;;;13.88
22269;BMP280;11303;50.772;19.670;2023-09-30T04:29:23;99208.78;;;13.87
22269;BMP280;11303;50.772;19.670;2023-09-30T04:31:25;99202.81;;;13.86
22269;BMP280;11303;50.772;19.670;2023-09-30T04:33:26;99211.00;;;13.85
22269;BMP280;11303;50.772;19.670;2023-09-30T04:35:28;99214.31;;;13.82
22269;BMP280;11303;50.772;19.670;2023-09-30T04:37:32;99218.44;;;13.83
22269;BMP280;11303;50.772;19.670;2023-09-30T04:39:33;99215.81;;;13.83
22269;BMP280;11303;50.772;19.670;2023-09-30T04:41:37;99220.28;;;13.82
22269;BMP280;11303;50.772;19.670;2023-09-30T04:43:38;99227.38;;;13.82
22269;BMP280;11303;50.772;19.670;2023-09-30T04:45:40;99232.25;;;13.83
22269;BMP280;11303;50.772;19.670;2023-09-30T04:47:42;99228.88;;;13.83
22269;BMP280;11303;50.772;19.670;2023-09-30T04:49:46;99232.25;;;13.83
22269;BMP280;11303;50.772;19.670;2023-09-30T04:51:47;99234.84;;;13.83
22269;BMP280;11303;50.772;19.670;2023-09-30T04:53:50;99246.06;;;13.84
22269;BMP280;11303;50.772;19.670;2023-09-30T04:55:52;99243.81;;;13.82
22269;BMP280;11303;50.772;19.670;2023-09-30T04:57:54;99240.06;;;13.83
22269;BMP280;11303;50.772;19.670;2023-09-30T04:59:55;99247.56;;;13.85
22269;BMP280;11303;50.772;19.670;2023-09-30T05:01:58;99239.75;;;13.85
22269;BMP280;11303;50.772;19.670;2023-09-30T05:04:00;99255.06;;;13.86
22269;BMP280;11303;50.772;19.670;2023-09-30T05:06:02;99251.38;;;13.88
22269;BMP280;11303;50.772;19.670;2023-09-30T05:08:05;99256.22;;;13.89
22269;BMP280;11303;50.772;19.670;2023-09-30T05:10:08;99264.47;;;13.91
22269;BMP280;11303;50.772;19.670;2023-09-30T05:12:14;99265.66;;;13.94
22269;BMP280;11303;50.772;19.670;2023-09-30T05:14:17;99269.41;;;13.96
22269;BMP280;11303;50.772;19.670;2023-09-30T05:16:21;99262.00;;;13.98
22269;BMP280;11303;50.772;19.670;2023-09-30T05:18:23;99271.34;;;13.99
22269;BMP280;11303;50.772;19.670;2023-09-30T05:20:25;99267.63;;;14.00
22269;BMP280;11303;50.772;19.670;2023-09-30T05:22:27;99268.38;;;14.01
22269;BMP280;11303;50.772;19.670;2023-09-30T05:24:29;99271.41;;;14.03
22269;BMP280;11303;50.772;19.670;2023-09-30T05:26:31;99272.47;;;14.02
22269;BMP280;11303;50.772;19.670;2023-09-30T05:28:34;99266.09;;;13.99
22269;BMP280;11303;50.772;19.670;2023-09-30T05:30:36;99272.13;;;14.03
22269;BMP280;11303;50.772;19.670;2023-09-30T05:32:38;99272.22;;;14.07
22269;BMP280;11303;50.772;19.670;2023-09-30T05:34:40;99277.06;;;14.08
22269;BMP280;11303;50.772;19.670;2023-09-30T05:36:41;99277.56;;;14.14
22269;BMP280;11303;50.772;19.670;2023-09-30T05:38:44;99283.16;;;14.16
22269;BMP280;11303;50.772;19.670;2023-09-30T05:40:46;99281.38;;;14.20
22269;BMP280;11303;50.772;19.670;2023-09-30T05:42:48;99274.00;;;14.26
22269;BMP280;11303;50.772;19.670;2023-09-30T05:44:51;99268.13;;;14.33
22269;BMP280;11303;50.772;19.670;2023-09-30T05:46:54;99288.44;;;14.43
22269;BMP280;11303;50.772;19.670;2023-09-30T05:48:56;99285.19;;;14.50
22269;BMP280;11303;50.772;19.670;2023-09-30T05:50:58;99290.91;;;14.59
22269;BMP280;11303;50.772;19.670;2023-09-30T05:53:00;99281.63;;;14.65
22269;BMP280;11303;50.772;19.670;2023-09-30T05:55:02;99288.06;;;14.71
22269;BMP280;11303;50.772;19.670;2023-09-30T05:57:04;99286.66;;;14.77
22269;BMP280;11303;50.772;19.670;2023-09-30T05:59:05;99286.34;;;14.82
22269;BMP280;11303;50.772;19.670;2023-09-30T06:01:08;99277.44;;;14.87
22269;BMP280;11303;50.772;19.670;2023-09-30T06:03:14;99285.75;;;14.93
22269;BMP280;11303;50.772;19.670;2023-09-30T06:05:15;99295.16;;;14.97
22269;BMP280;11303;50.772;19.670;2023-09-30T06:07:17;99299.66;;;15.00
22269;BMP280;11303;50.772;19.670;2023-09-30T06:09:21;99291.47;;;15.02
22269;BMP280;11303;50.772;19.670;2023-09-30T06:11:28;99289.59;;;15.02
22269;BMP280;11303;50.772;19.670;2023-09-30T06:13:32;99294.41;;;15.00
22269;BMP280;11303;50.772;19.670;2023-09-30T06:15:41;99291.47;;;15.02
22269;BMP280;11303;50.772;19.670;2023-09-30T06:17:43;99299.72;;;15.04
22269;BMP280;11303;50.772;19.670;2023-09-30T06:19:45;99303.13;;;15.08
22269;BMP280;11303;50.772;19.670;2023-09-30T06:21:48;99317.75;;;15.13
22269;BMP280;11303;50.772;19.670;2023-09-30T06:23:51;99309.97;;;15.16
22269;BMP280;11303;50.772;19.670;2023-09-30T06:25:53;99311.44;;;15.17
22269;BMP280;11303;50.772;19.670;2023-09-30T06:27:55;99316.00;;;15.20
22269;BMP280;11303;50.772;19.670;2023-09-30T06:29:56;99329.47;;;15.22
22269;BMP280;11303;50.772;19.670;2023-09-30T06:31:58;99326.13;;;15.25
22269;BMP280;11303;50.772;19.670;2023-09-30T06:34:00;99330.28;;;15.26
22269;BMP280;11303;50.772;19.670;2023-09-30T06:36:02;99326.13;;;15.22
22269;BMP280;11303;50.772;19.670;2023-09-30T06:38:04;99333.91;;;15.18
22269;BMP280;11303;50.772;19.670;2023-09-30T06:40:10;99339.09;;;15.15
22269;BMP280;11303;50.772;19.670;2023-09-30T06:42:13;99342.47;;;15.15
22269;BMP280;11303;50.772;19.670;2023-09-30T06:44:14;99348.84;;;15.14
22269;BMP280;11303;50.772;19.670;2023-09-30T06:46:16;99357.81;;;15.17
22269;BMP280;11303;50.772;19.670;2023-09-30T06:48:18;99361.59;;;15.16
22269;BMP280;11303;50.772;19.670;2023-09-30T06:50:20;99362.28;;;15.13
22269;BMP280;11303;50.772;19.670;2023-09-30T06:52:23;99358.50;;;15.10
22269;BMP280;11303;50.772;19.670;2023-09-30T06:54:25;99356.94;;;15.05
22269;BMP280;11303;50.772;19.670;2023-09-30T06:56:26;99367.38;;;15.02
22269;BMP280;11303;50.772;19.670;2023-09-30T06:58:28;99364.72;;;14.98
22269;BMP280;11303;50.772;19.670;2023-09-30T07:00:30;99361.34;;;14.98
22269;BMP280;11303;50.772;19.670;2023-09-30T07:02:31;99366.19;;;14.99
22269;BMP280;11303;50.772;19.670;2023-09-30T07:04:33;99365.16;;;15.04
22269;BMP280;11303;50.772;19.670;2023-09-30T07:06:35;99367.06;;;15.07
22269;BMP280;11303;50.772;19.670;2023-09-30T07:08:36;99370.84;;;15.10
22269;BMP280;11303;50.772;19.670;2023-09-30T07:10:38;99376.84;;;15.10
22269;BMP280;11303;50.772;19.670;2023-09-30T07:12:40;99374.22;;;15.10
22269;BMP280;11303;50.772;19.670;2023-09-30T07:14:41;99376.47;;;15.12
22269;BMP280;11303;50.772;19.670;2023-09-30T07:16:43;99373.16;;;15.15
22269;BMP280;11303;50.772;19.670;2023-09-30T07:18:45;99383.66;;;15.18
22269;BMP280;11303;50.772;19.670;2023-09-30T07:20:46;99383.31;;;15.20
22269;BMP280;11303;50.772;19.670;2023-09-30T07:22:48;99385.56;;;15.21
22269;BMP280;11303;50.772;19.670;2023-09-30T07:25:07;99387.56;;;15.32
22269;BMP280;11303;50.772;19.670;2023-09-30T07:27:10;99385.09;;;15.42
22269;BMP280;11303;50.772;19.670;2023-09-30T07:29:28;99386.72;;;15.54
22269;BMP280;11303;50.772;19.670;2023-09-30T07:31:36;99393.56;;;15.62
22269;BMP280;11303;50.772;19.670;2023-09-30T07:33:38;99389.88;;;15.70
22269;BMP280;11303;50.772;19.670;2023-09-30T07:35:40;99390.03;;;15.85
22269;BMP280;11303;50.772;19.670;2023-09-30T07:37:42;99395.00;;;15.97
22269;BMP280;11303;50.772;19.670;2023-09-30T07:39:44;99390.16;;;15.99
22269;BMP280;11303;50.772;19.670;2023-09-30T07:41:47;99399.13;;;15.98
22269;BMP280;11303;50.772;19.670;2023-09-30T07:43:48;99395.44;;;16.03
22269;BMP280;11303;50.772;19.670;2023-09-30T07:45:50;99390.63;;;16.08
22269;BMP280;11303;50.772;19.670;2023-09-30T07:47:52;99394.03;;;16.13
22269;BMP280;11303;50.772;19.670;2023-09-30T07:49:53;99390.72;;;16.19
22269;BMP280;11303;50.772;19.670;2023-09-30T07:51:55;99392.63;;;16.22
22269;BMP280;11303;50.772;19.670;2023-09-30T07:53:57;99395.59;;;16.21
22269;BMP280;11303;50.772;19.670;2023-09-30T07:56:14;99396.03;;;16.30
22269;BMP280;11303;50.772;19.670;2023-09-30T07:58:16;99398.41;;;16.42
22269;BMP280;11303;50.772;19.670;2023-09-30T08:00:18;99401.84;;;16.54
22269;BMP280;11303;50.772;19.670;2023-09-30T08:02:23;99402.31;;;16.66
22269;BMP280;11303;50.772;19.670;2023-09-30T08:04:26;99397.50;;;16.83
22269;BMP280;11303;50.772;19.670;2023-09-30T08:06:27;99403.22;;;16.96
22269;BMP280;11303;50.772;19.670;2023-09-30T08:08:29;99410.72;;;16.97
22269;BMP280;11303;50.772;19.670;2023-09-30T08:10:32;99417.84;;;16.93
22269;BMP280;11303;50.772;19.670;2023-09-30T08:12:34;99417.81;;;16.89
22269;BMP280;11303;50.772;19.670;2023-09-30T08:14:36;99414.81;;;16.87
22269;BMP280;11303;50.772;19.670;2023-09-30T08:16:37;99418.22;;;16.91
22269;BMP280;11303;50.772;19.670;2023-09-30T08:18:39;99420.84;;;16.91
22269;BMP280;11303;50.772;19.670;2023-09-30T08:20:41;99422.25;;;16.78
22269;BMP280;11303;50.772;19.670;2023-09-30T08:22:42;99419.19;;;16.72
22269;BMP280;11303;50.772;19.670;2023-09-30T08:24:44;99416.56;;;16.72
22269;BMP280;11303;50.772;19.670;2023-09-30T08:26:46;99420.00;;;16.77
22269;BMP280;11303;50.772;19.670;2023-09-30T08:28:47;99426.41;;;16.79
22269;BMP280;11303;50.772;19.670;2023-09-30T08:30:49;99421.16;;;16.83
22269;BMP280;11303;50.772;19.670;2023-09-30T08:32:52;99424.53;;;16.83
22269;BMP280;11303;50.772;19.670;2023-09-30T08:34:54;99426.41;;;16.83
22269;BMP280;11303;50.772;19.670;2023-09-30T08:36:55;99423.06;;;16.86
22269;BMP280;11303;50.772;19.670;2023-09-30T08:38:58;99423.47;;;16.95
22269;BMP280;11303;50.772;19.670;2023-09-30T08:41:00;99414.19;;;17.16
22269;BMP280;11303;50.772;19.670;2023-09-30T08:43:04;99424.03;;;17.37
22269;BMP280;11303;50.772;19.670;2023-09-30T08:45:09;99414.34;;;17.62
22269;BMP280;11303;50.772;19.670;2023-09-30T08:47:11;99424.16;;;17.72
22269;BMP280;11303;50.772;19.670;2023-09-30T08:49:13;99414.41;;;17.76
22269;BMP280;11303;50.772;19.670;2023-09-30T08:51:16;99415.13;;;17.81
22269;BMP280;11303;50.772;19.670;2023-09-30T08:53:18;99410.66;;;17.92
22269;BMP280;11303;50.772;19.670;2023-09-30T08:55:21;99414.81;;;18.22
22269;BMP280;11303;50.772;19.670;2023-09-30T08:57:24;99406.88;;;18.54
22269;BMP280;11303;50.772;19.670;2023-09-30T08:59:27;99417.34;;;18.79
22269;BMP280;11303;50.772;19.670;2023-09-30T09:01:30;99413.94;;;18.82
22269;BMP280;11303;50.772;19.670;2023-09-30T09:03:32;99423.00;;;18.85
22269;BMP280;11303;50.772;19.670;2023-09-30T09:05:34;99420.72;;;18.76
22269;BMP280;11303;50.772;19.670;2023-09-30T09:07:36;99419.59;;;18.80
22269;BMP280;11303;50.772;19.670;2023-09-30T09:09:38;99425.63;;;18.85
22269;BMP280;11303;50.772;19.670;2023-09-30T09:11:39;99428.25;;;18.77
22269;BMP280;11303;50.772;19.670;2023-09-30T09:13:52;99422.25;;;18.63
22269;BMP280;11303;50.772;19.670;2023-09-30T09:16:07;99429.44;;;18.48
22269;BMP280;11303;50.772;19.670;2023-09-30T09:18:09;99424.16;;;18.44
22269;BMP280;11303;50.772;19.670;2023-09-30T09:20:20;99435.47;;;18.41
22269;BMP280;11303;50.772;19.670;2023-09-30T09:22:22;99433.97;;;18.40
22269;BMP280;11303;50.772;19.670;2023-09-30T09:24:31;99433.59;;;18.42
22269;BMP280;11303;50.772;19.670;2023-09-30T09:26:33;99427.16;;;18.57
22269;BMP280;11303;50.772;19.670;2023-09-30T09:28:37;99434.31;;;18.60
22269;BMP280;11303;50.772;19.670;2023-09-30T09:30:41;99441.44;;;18.59
22269;BMP280;11303;50.772;19.670;2023-09-30T09:35:06;99433.13;;;18.83
22269;BMP280;11303;50.772;19.670;2023-09-30T09:37:13;99435.00;;;18.86
22269;BMP280;11303;50.772;19.670;2023-09-30T09:39:15;99440.28;;;18.82
22269;BMP280;11303;50.772;19.670;2023-09-30T09:41:18;99443.69;;;18.79
22269;BMP280;11303;50.772;19.670;2023-09-30T09:43:19;99442.16;;;18.89
22269;BMP280;11303;50.772;19.670;2023-09-30T09:45:23;99448.50;;;19.02
22269;BMP280;11303;50.772;19.670;2023-09-30T09:47:25;99441.72;;;19.08
22269;BMP280;11303;50.772;19.670;2023-09-30T09:49:27;99446.91;;;19.22
22269;BMP280;11303;50.772;19.670;2023-09-30T09:51:30;99452.91;;;19.34
22269;BMP280;11303;50.772;19.670;2023-09-30T09:53:35;99447.59;;;19.44
22269;BMP280;11303;50.772;19.670;2023-09-30T09:55:41;99451.69;;;19.53
22269;BMP280;11303;50.772;19.670;2023-09-30T09:57:43;99448.59;;;19.65
22269;BMP280;11303;50.772;19.670;2023-09-30T09:59:46;99437.31;;;19.64
22269;BMP280;11303;50.772;19.670;2023-09-30T10:01:48;99446.31;;;19.67
22269;BMP280;11303;50.772;19.670;2023-09-30T10:03:51;99438.50;;;19.53
22269;BMP280;11303;50.772;19.670;2023-09-30T10:05:53;99444.88;;;19.55
22269;BMP280;11303;50.772;19.670;2023-09-30T10:08:07;99439.63;;;19.52
22269;BMP280;11303;50.772;19.670;2023-09-30T10:10:16;99440.41;;;19.52
22269;BMP280;11303;50.772;19.670;2023-09-30T10:12:19;99447.84;;;19.61
22269;BMP280;11303;50.772;19.670;2023-09-30T10:14:32;99450.41;;;19.75
22269;BMP280;11303;50.772;19.670;2023-09-30T10:19:17;99434.03;;;20.02
22269;BMP280;11303;50.772;19.670;2023-09-30T10:21:19;99438.84;;;20.11
22269;BMP280;11303;50.772;19.670;2023-09-30T10:25:36;99428.53;;;20.27
22269;BMP280;11303;50.772;19.670;2023-09-30T10:27:38;99419.28;;;20.46
22269;BMP280;11303;50.772;19.670;2023-09-30T10:29:41;99419.78;;;20.37
22269;BMP280;11303;50.772;19.670;2023-09-30T10:31:49;99418.00;;;20.23
22269;BMP280;11303;50.772;19.670;2023-09-30T10:36:04;99428.03;;;19.98
22269;BMP280;11303;50.772;19.670;2023-09-30T10:40:27;99433.47;;;19.76
22269;BMP280;11303;50.772;19.670;2023-09-30T10:42:48;99437.25;;;19.68
22269;BMP280;11303;50.772;19.670;2023-09-30T10:44:51;99429.81;;;19.56
22269;BMP280;11303;50.772;19.670;2023-09-30T10:46:54;99439.69;;;19.44
22269;BMP280;11303;50.772;19.670;2023-09-30T10:48:55;99437.41;;;19.47
22269;BMP280;11303;50.772;19.670;2023-09-30T10:50:59;99437.81;;;19.38
22269;BMP280;11303;50.772;19.670;2023-09-30T10:53:05;99439.38;;;19.35
22269;BMP280;11303;50.772;19.670;2023-09-30T10:55:09;99441.63;;;19.30
22269;BMP280;11303;50.772;19.670;2023-09-30T10:57:10;99434.91;;;19.21
22269;BMP280;11303;50.772;19.670;2023-09-30T10:59:18;99434.56;;;19.05
22269;BMP280;11303;50.772;19.670;2023-09-30T11:01:21;99438.03;;;18.80
22269;BMP280;11303;50.772;19.670;2023-09-30T11:03:24;99444.47;;;18.47
22269;BMP280;11303;50.772;19.670;2023-09-30T11:05:27;99446.75;;;18.20
22269;BMP280;11303;50.772;19.670;2023-09-30T11:07:50;99444.50;;;17.93
22269;BMP280;11303;50.772;19.670;2023-09-30T11:09:53;99444.06;;;17.81
22269;BMP280;11303;50.772;19.670;2023-09-30T11:11:55;99459.84;;;17.77
22269;BMP280;11303;50.772;19.670;2023-09-30T11:13:56;99450.44;;;17.72
22269;BMP280;11303;50.772;19.670;2023-09-30T11:16:03;99456.41;;;17.62
22269;BMP280;11303;50.772;19.670;2023-09-30T11:18:16;99453.38;;;17.46
22269;BMP280;11303;50.772;19.670;2023-09-30T11:20:23;99453.25;;;17.24
22269;BMP280;11303;50.772;19.670;2023-09-30T11:22:25;99460.25;;;16.95
22269;BMP280;11303;50.772;19.670;2023-09-30T11:24:28;99454.09;;;16.73
22269;BMP280;11303;50.772;19.670;2023-09-30T11:26:31;99467.53;;;16.61
22269;BMP280;11303;50.772;19.670;2023-09-30T11:28:41;99479.50;;;16.62
22269;BMP280;11303;50.772;19.670;2023-09-30T11:31:00;99466.44;;;16.69
22269;BMP280;11303;50.772;19.670;2023-09-30T11:33:03;99464.25;;;16.78
22269;BMP280;11303;50.772;19.670;2023-09-30T11:35:31;99465.44;;;16.84
22269;BMP280;11303;50.772;19.670;2023-09-30T11:37:32;99466.25;;;16.96
22269;BMP280;11303;50.772;19.670;2023-09-30T11:39:35;99463.69;;;17.06
22269;BMP280;11303;50.772;19.670;2023-09-30T11:41:39;99472.69;;;17.05
22269;BMP280;11303;50.772;19.670;2023-09-30T11:44:01;99474.91;;;16.96
22269;BMP280;11303;50.772;19.670;2023-09-30T11:46:10;99471.19;;;17.01
22269;BMP280;11303;50.772;19.670;2023-09-30T11:48:17;99479.44;;;17.06
22269;BMP280;11303;50.772;19.670;2023-09-30T11:50:20;99485.81;;;17.02